createdAt,value
2022-08-03T14:55:21.485Z,6.93
2022-08-03T14:57:51.658Z,7.55
2022-08-03T15:00:22.104Z,8.32
2022-08-03T15:02:52.231Z,8.25
2022-08-03T15:05:22.368Z,6.75
2022-08-03T15:07:52.450Z,8.02
2022-08-03T15:10:22.863Z,5.03
2022-08-03T15:13:00.764Z,6.85
2022-08-03T15:15:30.729Z,8.02
2022-08-03T15:18:00.957Z,5.20
2022-08-03T15:20:42.974Z,5.30
2022-08-03T15:23:15.183Z,7.00
2022-08-03T15:26:29.553Z,7.57
2022-08-03T15:28:37.692Z,4.97
2022-08-03T15:31:09.134Z,7.63
2022-08-03T15:33:39.875Z,8.52
2022-08-03T15:36:10.161Z,7.90
2022-08-03T15:38:40.214Z,10.60
2022-08-03T15:41:13.783Z,6.70
2022-08-03T15:43:47.597Z,9.70
2022-08-03T15:46:33.040Z,9.23
2022-08-03T15:49:03.145Z,6.97
2022-08-03T15:51:33.107Z,7.22
2022-08-03T15:54:03.112Z,12.07
2022-08-03T15:56:34.740Z,8.90
2022-08-03T15:59:12.515Z,10.65
2022-08-03T16:01:44.397Z,7.25
2022-08-03T16:04:14.698Z,9.07
2022-08-03T16:06:44.960Z,8.95
2022-08-03T16:09:24.053Z,9.90
2022-08-03T16:12:05.511Z,9.65
2022-08-03T16:14:52.351Z,9.95
2022-08-03T16:17:23.983Z,5.72
2022-08-03T16:19:54.830Z,9.15
2022-08-03T16:22:26.278Z,7.73
2022-08-03T16:27:36.962Z,8.20
2022-08-03T16:30:21.793Z,6.85
2022-08-03T16:32:51.894Z,5.50
2022-08-03T16:35:21.908Z,6.45
2022-08-03T16:37:56.384Z,7.32
2022-08-03T16:40:28.504Z,4.75
2022-08-03T16:42:58.692Z,4.95
2022-08-03T16:45:29.066Z,4.10
2022-08-03T16:48:01.640Z,4.38
2022-08-03T16:50:37.997Z,3.58
2022-08-03T16:53:15.653Z,5.47
2022-08-03T16:55:53.411Z,4.32
2022-08-03T16:58:41.875Z,3.70
2022-08-03T17:01:21.618Z,2.83
2022-08-03T17:04:03.391Z,3.63
2022-08-03T17:06:45.064Z,4.28
2022-08-03T17:09:18.310Z,5.60
2022-08-03T17:11:53.267Z,3.97
2022-08-03T17:14:29.295Z,5.15
2022-08-03T17:17:03.760Z,6.05
2022-08-03T17:19:35.446Z,4.43
2022-08-03T17:22:20.268Z,9.00
2022-08-03T17:24:54.837Z,5.13
2022-08-03T17:28:48.090Z,4.72
2022-08-03T17:30:21.880Z,6.00
2022-08-03T17:32:57.522Z,5.15
2022-08-03T17:35:34.435Z,6.57
2022-08-03T17:38:12.064Z,9.57
2022-08-03T17:40:49.988Z,7.35
2022-08-03T17:44:13.974Z,6.97
2022-08-03T17:46:12.493Z,5.32
2022-08-03T17:48:43.714Z,4.00
2022-08-03T17:51:25.819Z,6.57
2022-08-03T17:54:03.488Z,5.78
2022-08-03T17:56:44.439Z,6.75
2022-08-03T17:59:50.779Z,9.38
2022-08-03T18:02:57.370Z,6.90
2022-08-03T18:06:11.660Z,6.60
2022-08-03T18:08:32.361Z,8.43
2022-08-03T18:11:09.575Z,5.50
2022-08-03T18:14:09.939Z,5.70
2022-08-03T18:16:54.740Z,9.05
2022-08-03T18:20:01.896Z,9.90
2022-08-03T18:22:16.349Z,7.80
2022-08-03T18:24:51.626Z,8.57
2022-08-03T18:27:24.048Z,7.25
2022-08-03T18:30:17.355Z,9.13
2022-08-03T18:33:00.469Z,8.40
2022-08-03T18:35:52.877Z,6.53
2022-08-03T18:38:24.429Z,8.03
2022-08-03T18:40:54.707Z,6.38
2022-08-03T18:43:47.495Z,8.80
2022-08-03T18:46:38.295Z,7.20
2022-08-03T18:49:29.188Z,7.00
2022-08-03T18:52:13.462Z,8.18
2022-08-03T18:55:06.554Z,5.28
2022-08-03T18:58:07.423Z,5.35
2022-08-03T19:00:53.982Z,8.25
2022-08-03T19:03:42.847Z,8.38
2022-08-03T19:06:26.681Z,7.78
2022-08-03T19:08:58.331Z,7.65
2022-08-03T19:12:12.335Z,10.90
2022-08-03T19:14:51.918Z,10.70
2022-08-03T19:17:29.225Z,9.57
2022-08-03T19:20:01.588Z,12.65
2022-08-03T19:22:33.050Z,10.43
2022-08-03T19:25:05.311Z,7.78
2022-08-03T19:27:36.507Z,6.40
2022-08-03T19:30:21.979Z,7.03
2022-08-03T19:32:57.483Z,6.35
2022-08-03T19:38:29.313Z,10.73
2022-08-03T19:41:06.421Z,7.47
2022-08-03T19:43:52.671Z,8.45
2022-08-03T19:46:30.300Z,5.03
2022-08-03T19:52:03.570Z,6.15
2022-08-03T19:54:45.749Z,11.17
2022-08-03T19:57:27.461Z,6.07
2022-08-03T19:59:59.011Z,10.38
2022-08-03T20:02:36.409Z,8.65
2022-08-03T20:05:14.843Z,6.38
2022-08-03T20:07:47.445Z,9.27
2022-08-03T20:10:20.270Z,9.85
2022-08-03T20:12:51.749Z,10.77
2022-08-03T20:18:17.024Z,7.88
2022-08-03T20:20:50.863Z,7.22
2022-08-03T20:23:22.706Z,8.25
2022-08-03T20:26:02.169Z,7.50
2022-08-03T20:28:50.089Z,9.00
2022-08-03T20:31:32.475Z,10.48
2022-08-03T20:34:07.442Z,9.60
2022-08-03T20:36:39.229Z,14.18
2022-08-03T20:39:09.274Z,9.43
2022-08-03T20:44:10.374Z,8.10
2022-08-03T20:46:53.478Z,8.45
2022-08-03T20:49:45.612Z,8.32
2022-08-03T20:52:18.589Z,9.98
2022-08-03T20:54:50.341Z,9.75
2022-08-03T20:57:22.801Z,6.95
2022-08-03T21:02:29.732Z,12.07
2022-08-03T21:05:03.048Z,9.20
2022-08-03T21:08:05.661Z,9.10
2022-08-03T21:13:03.003Z,6.72
2022-08-03T21:13:03.792Z,11.60
2022-08-03T21:13:08.184Z,9.27
2022-08-03T21:13:10.601Z,9.82
2022-08-03T21:13:49.357Z,11.48
2022-08-03T21:16:23.835Z,9.93
2022-08-03T21:18:55.203Z,12.23
2022-08-03T21:21:26.278Z,10.95
2022-08-03T21:23:57.618Z,9.85
2022-08-03T21:26:29.741Z,9.18
2022-08-03T21:28:59.902Z,9.60
2022-08-03T21:31:30.352Z,9.77
2022-08-03T21:34:04.273Z,10.50
2022-08-03T21:36:38.188Z,9.77
2022-08-03T21:39:11.284Z,11.77
2022-08-03T21:41:42.874Z,11.55
2022-08-03T21:44:13.642Z,9.38
2022-08-03T21:46:45.334Z,10.05
2022-08-03T21:50:07.691Z,10.20
2022-08-03T21:52:08.238Z,9.50
2022-08-03T21:54:44.674Z,12.85
2022-08-03T21:57:28.217Z,11.88
2022-08-03T22:00:04.409Z,11.50
2022-08-03T22:02:53.050Z,10.95
2022-08-03T22:05:28.827Z,11.80
2022-08-03T22:07:59.859Z,11.07
2022-08-03T22:10:31.019Z,8.48
2022-08-03T22:13:01.121Z,13.55
2022-08-03T22:15:31.226Z,12.13
2022-08-03T22:18:05.605Z,14.15
2022-08-03T22:20:35.895Z,10.88
2022-08-03T22:23:08.993Z,12.48
2022-08-03T22:25:42.048Z,15.57
2022-08-03T22:28:14.380Z,12.07
2022-08-03T22:30:45.735Z,12.32
2022-08-03T22:33:17.668Z,13.70
2022-08-03T22:35:51.929Z,13.98
2022-08-03T22:38:22.193Z,14.75
2022-08-03T22:40:53.108Z,13.63
2022-08-03T22:43:29.538Z,12.52
2022-08-03T22:46:11.197Z,11.25
2022-08-03T22:48:42.629Z,9.80
2022-08-03T22:51:12.933Z,13.32
2022-08-03T22:53:43.169Z,12.60
2022-08-03T22:56:14.082Z,11.73
2022-08-03T22:58:44.454Z,11.43
